Time;durP1;ratioP1;P1;durP2;ratioP2;P2;SDS_P1;SDS_P2;PMS_P1;PMS_P2;Temp;Humidity;BMP_temperature;BMP_pressure;BME280_temperature;BME280_humidity;BME280_pressure;Samples;Min_cycle;Max_cycle;Signal;HPM_P1;HPM_P2
2024/04/04 00:00:44;;;;;;;2.30;0.80;;;12.50;57.50;;;;;;4995001;28;20192;-71
2024/04/04 00:03:11;;;;;;;1.90;0.70;;;12.50;57.50;;;;;;4995065;28;20204;-70
2024/04/04 00:05:37;;;;;;;1.90;0.70;;;12.40;57.40;;;;;;5002866;28;20188;-71
2024/04/04 00:08:07;;;;;;;1.92;0.80;;;12.40;57.60;;;;;;5013657;28;20757;-71
2024/04/04 00:10:34;;;;;;;2.00;0.80;;;12.40;57.70;;;;;;5014655;28;20616;-71
2024/04/04 00:13:03;;;;;;;1.73;0.60;;;12.40;57.70;;;;;;5014427;28;20195;-71
2024/04/04 00:15:29;;;;;;;5.35;0.70;;;12.40;57.60;;;;;;5007257;28;20189;-71
2024/04/04 00:17:56;;;;;;;2.73;0.60;;;12.40;57.70;;;;;;4994690;28;20200;-71
2024/04/04 00:20:22;;;;;;;2.20;0.70;;;12.40;57.70;;;;;;5000236;28;20505;-71
2024/04/04 00:22:49;;;;;;;2.77;1.00;;;12.40;57.70;;;;;;5014263;28;20467;-71
2024/04/04 00:25:15;;;;;;;2.38;1.00;;;12.40;57.90;;;;;;5014125;28;20992;-71
2024/04/04 00:27:44;;;;;;;2.53;0.80;;;12.40;57.70;;;;;;5014148;28;20236;-71
2024/04/04 00:30:10;;;;;;;2.90;0.90;;;12.40;57.50;;;;;;5010133;28;20858;-71
2024/04/04 00:32:37;;;;;;;1.90;0.67;;;12.40;57.40;;;;;;4993465;28;20447;-71
2024/04/04 00:35:04;;;;;;;1.80;0.70;;;12.40;57.60;;;;;;4994610;28;20510;-70
2024/04/04 00:37:31;;;;;;;3.20;1.45;;;12.40;57.60;;;;;;4994016;28;20470;-70
2024/04/04 00:39:57;;;;;;;1.80;0.63;;;12.40;57.40;;;;;;4995202;28;20235;-71
2024/04/04 00:42:24;;;;;;;3.30;0.80;;;12.40;57.50;;;;;;5013361;28;20273;-70
2024/04/04 00:44:52;;;;;;;2.33;0.77;;;12.40;57.40;;;;;;5014001;28;20513;-70
2024/04/04 00:47:19;;;;;;;3.03;0.80;;;12.40;57.40;;;;;;5013923;28;20443;-71
2024/04/04 00:49:45;;;;;;;3.17;0.77;;;12.50;57.60;;;;;;5013458;28;20474;-70
2024/04/04 00:52:12;;;;;;;1.90;0.70;;;12.50;57.80;;;;;;4994026;28;20439;-71
2024/04/04 00:54:41;;;;;;;2.20;0.73;;;12.50;57.50;;;;;;4994242;28;20435;-71
2024/04/04 00:57:08;;;;;;;3.65;0.90;;;12.50;57.70;;;;;;4993821;28;20653;-70
2024/04/04 00:59:35;;;;;;;1.90;0.70;;;12.60;57.40;;;;;;4993996;28;20259;-70
2024/04/04 01:02:04;;;;;;;3.27;0.83;;;12.60;57.40;;;;;;5011124;28;20527;-70
2024/04/04 01:04:30;;;;;;;2.43;0.80;;;12.60;57.40;;;;;;5013678;28;20471;-70
2024/04/04 01:06:58;;;;;;;2.30;0.70;;;12.60;57.20;;;;;;5013749;28;20473;-70
2024/04/04 01:09:24;;;;;;;1.90;0.60;;;12.70;57.40;;;;;;5010166;28;20570;-71
2024/04/04 01:11:50;;;;;;;3.07;1.00;;;12.70;57.20;;;;;;4994887;28;20519;-70
2024/04/04 01:14:17;;;;;;;2.20;1.00;;;12.70;57.30;;;;;;4993581;28;20479;-71
2024/04/04 01:16:44;;;;;;;3.38;0.95;;;12.70;57.40;;;;;;4993932;28;20531;-70
2024/04/04 01:19:11;;;;;;;2.00;0.77;;;12.80;57.10;;;;;;4993579;28;20686;-71
2024/04/04 01:21:38;;;;;;;2.10;0.80;;;12.80;57.20;;;;;;5001141;28;20600;-71
2024/04/04 01:24:06;;;;;;;2.10;0.93;;;12.90;57.30;;;;;;4993813;28;20519;-71
2024/04/04 01:26:33;;;;;;;2.13;0.63;;;12.90;57.10;;;;;;4994126;28;20444;-71
2024/04/04 01:28:59;;;;;;;2.90;0.90;;;12.90;57.10;;;;;;4993447;28;20503;-70
2024/04/04 01:31:26;;;;;;;2.63;0.57;;;13.00;57.00;;;;;;4999546;28;20438;-71
2024/04/04 01:33:52;;;;;;;3.20;0.80;;;13.00;56.90;;;;;;5013325;28;20501;-71
2024/04/04 01:36:19;;;;;;;2.20;0.70;;;13.00;56.60;;;;;;5013175;28;20451;-70
2024/04/04 01:38:45;;;;;;;2.37;0.70;;;13.00;56.40;;;;;;5013017;28;20474;-71
2024/04/04 01:41:14;;;;;;;2.87;0.83;;;13.10;56.50;;;;;;5008451;28;20472;-70
2024/04/04 01:43:40;;;;;;;1.90;0.60;;;13.10;56.30;;;;;;4996822;28;20517;-70
2024/04/04 01:46:07;;;;;;;2.10;0.97;;;13.20;56.10;;;;;;4997256;28;20882;-70
2024/04/04 01:48:34;;;;;;;2.63;1.00;;;13.20;56.30;;;;;;4997467;28;20895;-70
2024/04/04 01:51:01;;;;;;;3.03;0.80;;;13.20;55.90;;;;;;4999194;28;20527;-70
2024/04/04 01:53:27;;;;;;;2.57;0.90;;;13.30;55.70;;;;;;5005716;28;20439;-71
2024/04/04 01:55:59;;;;;;;2.77;0.87;;;13.30;55.60;;;;;;4997411;28;20439;-71
2024/04/04 01:58:26;;;;;;;4.23;1.20;;;13.30;55.70;;;;;;4997686;28;20419;-70
2024/04/04 02:00:53;;;;;;;3.20;0.90;;;13.30;55.50;;;;;;4997447;28;20857;-70
2024/04/04 02:03:19;;;;;;;2.43;0.63;;;13.40;55.60;;;;;;5003678;28;20450;-70
2024/04/04 02:05:46;;;;;;;2.00;0.73;;;13.40;55.00;;;;;;5017076;28;20524;-70
2024/04/04 02:08:13;;;;;;;2.07;0.80;;;13.40;55.20;;;;;;5016646;28;20497;-71
2024/04/04 02:10:42;;;;;;;2.00;0.70;;;13.50;55.00;;;;;;5016696;28;20799;-71
2024/04/04 02:13:08;;;;;;;2.63;1.20;;;13.50;55.00;;;;;;5010841;28;20476;-71
2024/04/04 02:15:40;;;;;;;2.83;0.80;;;13.50;55.00;;;;;;4997269;28;20792;-71
2024/04/04 02:18:06;;;;;;;2.50;0.80;;;13.50;54.90;;;;;;5010781;28;20430;-70
2024/04/04 02:20:33;;;;;;;4.67;1.23;;;13.50;54.90;;;;;;5016584;28;20500;-70
2024/04/04 02:23:00;;;;;;;2.00;0.80;;;13.50;54.90;;;;;;5011783;28;20850;-70
2024/04/04 02:25:27;;;;;;;3.60;0.77;;;13.60;54.90;;;;;;4996936;28;20446;-70
2024/04/04 02:27:53;;;;;;;2.73;0.87;;;13.60;54.50;;;;;;4996535;28;20478;-71
2024/04/04 02:30:20;;;;;;;2.83;0.70;;;13.60;54.50;;;;;;4997082;28;20501;-71
2024/04/04 02:32:49;;;;;;;1.80;0.80;;;13.60;54.90;;;;;;5015271;28;20430;-70
2024/04/04 02:35:16;;;;;;;1.93;0.77;;;13.60;54.60;;;;;;5016520;28;20434;-70
2024/04/04 02:37:43;;;;;;;2.20;0.60;;;13.60;54.70;;;;;;5016173;28;20434;-70
2024/04/04 02:40:10;;;;;;;2.00;0.70;;;13.60;54.70;;;;;;5015890;28;20529;-70
2024/04/04 02:42:37;;;;;;;2.20;0.60;;;13.60;54.80;;;;;;5000733;28;20456;-71
2024/04/04 02:45:04;;;;;;;1.80;0.70;;;13.60;54.70;;;;;;5008886;28;20493;-71
2024/04/04 02:47:30;;;;;;;3.03;0.80;;;13.60;54.80;;;;;;5015266;28;20779;-71
2024/04/04 02:49:59;;;;;;;2.10;0.80;;;13.60;54.50;;;;;;5015403;28;20516;-70
2024/04/04 02:52:25;;;;;;;1.80;0.60;;;13.60;54.40;;;;;;5010136;28;20459;-70
2024/04/04 02:54:52;;;;;;;3.73;0.70;;;13.60;54.40;;;;;;5011819;28;20434;-70
2024/04/04 02:57:18;;;;;;;2.00;1.03;;;13.60;54.50;;;;;;5015875;28;20443;-71
2024/04/04 02:59:45;;;;;;;1.90;0.70;;;13.50;54.50;;;;;;5015830;28;20455;-71
2024/04/04 03:02:11;;;;;;;2.30;0.60;;;13.50;54.60;;;;;;5004510;28;20483;-70
2024/04/04 03:04:39;;;;;;;2.20;0.60;;;13.50;55.00;;;;;;4996056;28;20450;-71
2024/04/04 03:07:07;;;;;;;1.90;0.70;;;13.40;55.20;;;;;;4995727;28;20439;-70
2024/04/04 03:09:34;;;;;;;3.67;0.73;;;13.40;55.50;;;;;;4995908;28;20467;-70
2024/04/04 03:12:00;;;;;;;1.80;0.80;;;13.40;55.70;;;;;;5008328;28;21021;-71
2024/04/04 03:14:27;;;;;;;2.00;0.70;;;13.40;55.90;;;;;;5015372;28;20822;-71
2024/04/04 03:16:53;;;;;;;1.77;0.63;;;13.30;55.90;;;;;;5015612;28;20469;-71
2024/04/04 03:19:20;;;;;;;3.27;0.80;;;13.30;56.20;;;;;;5015602;28;20450;-71
2024/04/04 03:21:48;;;;;;;4.33;1.57;;;13.30;56.40;;;;;;5004458;28;20432;-71
2024/04/04 03:24:16;;;;;;;1.80;0.70;;;13.20;56.40;;;;;;5009616;28;20963;-71
2024/04/04 03:26:42;;;;;;;2.00;0.80;;;13.30;56.70;;;;;;5014870;28;20486;-70
2024/04/04 03:29:09;;;;;;;2.00;0.83;;;13.20;56.70;;;;;;5014891;28;20637;-70
2024/04/04 03:31:35;;;;;;;1.90;0.70;;;13.30;56.90;;;;;;5014993;28;20928;-70
2024/04/04 03:34:02;;;;;;;2.00;0.70;;;13.20;56.90;;;;;;5002470;28;20870;-71
2024/04/04 03:36:28;;;;;;;2.20;0.57;;;13.20;56.90;;;;;;4995559;28;20435;-71
2024/04/04 03:38:55;;;;;;;2.20;0.80;;;13.20;57.00;;;;;;4995516;28;20542;-70
2024/04/04 03:41:24;;;;;;;1.87;0.70;;;13.20;57.20;;;;;;4995134;28;20934;-71
2024/04/04 03:43:50;;;;;;;1.70;0.60;;;13.20;57.20;;;;;;5005784;28;20485;-70
2024/04/04 03:46:17;;;;;;;1.80;0.60;;;13.10;57.10;;;;;;5015046;28;20515;-70
2024/04/04 03:48:44;;;;;;;2.07;0.70;;;13.10;57.20;;;;;;5014837;28;20530;-70
2024/04/04 03:51:11;;;;;;;1.83;0.70;;;13.10;57.30;;;;;;5015057;28;20850;-71
2024/04/04 03:53:39;;;;;;;2.27;0.90;;;13.10;57.30;;;;;;5005786;28;20459;-70
2024/04/04 03:56:06;;;;;;;2.30;0.97;;;13.00;57.40;;;;;;4995130;28;20439;-72
2024/04/04 03:58:34;;;;;;;1.80;0.60;;;12.90;57.50;;;;;;4994767;28;20432;-70
2024/04/04 04:01:01;;;;;;;3.03;0.73;;;12.90;57.70;;;;;;4994763;28;20199;-70
2024/04/04 04:03:27;;;;;;;2.20;0.80;;;12.90;57.70;;;;;;5001844;28;20435;-71
2024/04/04 04:05:54;;;;;;;2.80;1.20;;;12.90;57.80;;;;;;5014503;28;20440;-70
2024/04/04 04:08:20;;;;;;;2.20;0.80;;;12.80;57.90;;;;;;5014242;28;20501;-71
2024/04/04 04:10:47;;;;;;;1.70;0.60;;;12.80;57.90;;;;;;5014614;28;20672;-71
2024/04/04 04:13:13;;;;;;;1.87;0.77;;;12.80;57.90;;;;;;5008769;28;20462;-70
2024/04/04 04:15:42;;;;;;;6.17;1.23;;;12.80;57.90;;;;;;4994702;28;20432;-71
2024/04/04 04:18:08;;;;;;;2.47;0.80;;;12.70;58.00;;;;;;4994903;28;20839;-71
2024/04/04 04:23:22;;;;;;;1.90;0.70;;;12.70;58.10;;;;;;4999934;28;20462;-70
2024/04/04 04:25:48;;;;;;;1.90;0.90;;;12.70;58.30;;;;;;5014331;28;20517;-71
2024/04/04 04:28:15;;;;;;;2.20;0.93;;;12.60;58.20;;;;;;5013997;28;20525;-71
2024/04/04 04:30:42;;;;;;;2.20;0.80;;;12.60;58.20;;;;;;5014168;28;20507;-71
2024/04/04 04:33:09;;;;;;;1.90;0.90;;;12.60;58.30;;;;;;4999718;28;20191;-70
2024/04/04 04:35:40;;;;;;;1.90;0.70;;;12.50;58.40;;;;;;5004731;28;20439;-71
2024/04/04 04:38:07;;;;;;;1.90;0.70;;;12.50;58.30;;;;;;5014432;28;20834;-71
2024/04/04 04:40:33;;;;;;;1.90;0.75;;;12.50;58.40;;;;;;5014122;28;20485;-71
2024/04/04 04:43:00;;;;;;;2.20;0.80;;;12.50;58.40;;;;;;5014130;28;20223;-71
2024/04/04 04:45:26;;;;;;;2.00;0.80;;;12.40;58.40;;;;;;5010338;28;20466;-71
2024/04/04 04:47:55;;;;;;;2.00;0.70;;;12.40;58.50;;;;;;4998055;28;20522;-71
2024/04/04 04:50:20;;;;;;;2.50;0.87;;;12.40;58.50;;;;;;5013921;28;20274;-70
2024/04/04 04:52:48;;;;;;;2.00;0.80;;;12.40;58.60;;;;;;4998227;28;20432;-71
2024/04/04 04:55:14;;;;;;;1.90;0.70;;;12.30;58.50;;;;;;4993597;28;20436;-70
2024/04/04 04:57:41;;;;;;;1.90;0.60;;;12.30;58.60;;;;;;4994926;28;20231;-71
2024/04/04 05:00:11;;;;;;;2.30;0.80;;;12.30;58.60;;;;;;5013274;28;20199;-71
2024/04/04 05:02:39;;;;;;;1.73;0.60;;;12.30;58.40;;;;;;5013311;28;20188;-71
2024/04/04 05:05:15;;;;;;;2.00;0.70;;;12.30;58.60;;;;;;5013222;28;20478;-71
2024/04/04 05:07:42;;;;;;;1.80;0.70;;;12.30;58.60;;;;;;5003587;28;20445;-70
2024/04/04 05:10:08;;;;;;;1.80;0.73;;;12.30;58.50;;;;;;5012528;28;21081;-71
2024/04/04 05:12:36;;;;;;;2.67;1.00;;;12.20;58.60;;;;;;5012490;28;20496;-71
2024/04/04 05:15:02;;;;;;;2.00;0.60;;;12.20;58.60;;;;;;5012996;28;20467;-71
2024/04/04 05:17:29;;;;;;;1.98;0.70;;;12.20;58.70;;;;;;4997379;28;20390;-71
2024/04/04 05:19:55;;;;;;;2.20;0.70;;;12.20;58.70;;;;;;4999721;28;20613;-70
2024/04/04 05:22:23;;;;;;;1.95;0.90;;;12.30;58.70;;;;;;4999145;28;20236;-70
2024/04/04 05:24:50;;;;;;;1.90;0.65;;;12.20;58.70;;;;;;4999478;28;20180;-70
2024/04/04 05:27:17;;;;;;;2.40;0.80;;;12.30;58.80;;;;;;5003562;28;20211;-71
2024/04/04 05:29:43;;;;;;;2.30;0.90;;;12.20;58.80;;;;;;4999519;28;20251;-71
2024/04/04 05:32:10;;;;;;;2.03;0.80;;;12.30;59.20;;;;;;4999632;28;20576;-71
2024/04/04 05:34:36;;;;;;;2.60;0.90;;;12.30;59.10;;;;;;4999683;28;20270;-71
2024/04/04 05:37:03;;;;;;;2.00;1.03;;;12.30;59.00;;;;;;4999253;28;20442;-71
2024/04/04 05:39:31;;;;;;;2.10;0.90;;;12.40;59.60;;;;;;5011684;28;20501;-71
2024/04/04 05:41:58;;;;;;;2.20;1.00;;;12.50;59.20;;;;;;5017467;28;20448;-71
2024/04/04 05:44:24;;;;;;;2.40;1.37;;;12.50;59.40;;;;;;5018341;28;20881;-71
2024/04/04 05:46:51;;;;;;;2.10;0.93;;;12.60;58.80;;;;;;5008781;28;20468;-71
2024/04/04 05:49:17;;;;;;;2.00;0.70;;;12.70;59.20;;;;;;4999530;28;20562;-71
2024/04/04 05:51:44;;;;;;;2.03;0.87;;;12.70;59.30;;;;;;4999732;28;20455;-70
2024/04/04 05:54:10;;;;;;;1.83;0.83;;;12.80;58.60;;;;;;4999070;28;20470;-71
2024/04/04 05:56:38;;;;;;;2.23;0.87;;;12.90;58.40;;;;;;5005592;28;20890;-71
2024/04/04 05:59:04;;;;;;;2.13;0.80;;;12.90;58.60;;;;;;5018604;28;20504;-70
2024/04/04 06:01:31;;;;;;;2.70;1.67;;;13.00;57.70;;;;;;5018671;28;20430;-71
2024/04/04 06:03:57;;;;;;;1.90;0.80;;;13.00;57.40;;;;;;5017772;28;20980;-71
2024/04/04 06:06:24;;;;;;;1.90;0.77;;;13.10;57.50;;;;;;5007796;28;20440;-71
2024/04/04 06:08:50;;;;;;;1.87;0.73;;;13.20;57.30;;;;;;4998847;28;20479;-71
2024/04/04 06:11:17;;;;;;;1.90;0.70;;;13.20;57.00;;;;;;5000798;28;20448;-73
2024/04/04 06:13:44;;;;;;;2.10;1.03;;;13.30;56.40;;;;;;4999320;28;20774;-70
2024/04/04 06:16:11;;;;;;;1.90;0.70;;;13.30;56.40;;;;;;4999148;28;20497;-71
2024/04/04 06:18:38;;;;;;;2.27;0.80;;;13.40;56.60;;;;;;4998660;28;20918;-71
2024/04/04 06:21:05;;;;;;;1.97;0.90;;;13.50;56.90;;;;;;5013607;28;20430;-71
2024/04/04 06:23:31;;;;;;;2.20;0.80;;;13.60;57.10;;;;;;5017414;28;20490;-71
2024/04/04 06:25:58;;;;;;;2.00;1.00;;;13.80;57.10;;;;;;5016528;28;20509;-71
2024/04/04 06:28:24;;;;;;;1.97;0.73;;;13.90;57.50;;;;;;5017577;28;20430;-71
2024/04/04 06:30:52;;;;;;;2.47;0.80;;;13.90;57.70;;;;;;5013333;28;20475;-71
2024/04/04 06:33:18;;;;;;;2.07;0.80;;;14.10;57.20;;;;;;5014460;28;20470;-71
2024/04/04 06:35:45;;;;;;;3.63;1.20;;;14.10;56.60;;;;;;5013409;28;20481;-70
2024/04/04 06:38:11;;;;;;;2.97;1.57;;;14.20;57.60;;;;;;5009145;28;20526;-70
2024/04/04 06:40:41;;;;;;;2.23;0.90;;;14.20;57.60;;;;;;4996756;28;20467;-70
2024/04/04 06:43:07;;;;;;;2.10;0.90;;;14.30;57.70;;;;;;5008077;28;20435;-71
2024/04/04 06:45:34;;;;;;;3.70;1.07;;;14.40;57.50;;;;;;5005145;28;20454;-71
2024/04/04 06:48:01;;;;;;;2.30;1.07;;;14.40;56.40;;;;;;5013821;28;20463;-71
2024/04/04 06:50:29;;;;;;;3.20;1.50;;;14.40;57.10;;;;;;5014851;28;20537;-71
2024/04/04 06:52:55;;;;;;;2.43;1.00;;;14.50;56.70;;;;;;5014812;28;20942;-71
2024/04/04 06:55:22;;;;;;;2.57;1.17;;;14.50;56.30;;;;;;5014337;28;20449;-71
2024/04/04 06:57:48;;;;;;;3.40;1.53;;;14.50;56.30;;;;;;5014498;28;20470;-71
2024/04/04 07:00:16;;;;;;;2.50;1.00;;;14.60;55.20;;;;;;5014627;28;20466;-71
2024/04/04 07:02:42;;;;;;;2.17;0.90;;;14.70;55.60;;;;;;5014810;28;20467;-72
2024/04/04 07:05:11;;;;;;;2.07;1.00;;;14.80;55.60;;;;;;5014865;28;20830;-72
2024/04/04 07:07:37;;;;;;;2.47;0.73;;;15.00;54.60;;;;;;4996793;28;20423;-71
2024/04/04 07:10:07;;;;;;;2.43;1.00;;;15.00;53.60;;;;;;4996151;28;20482;-71
2024/04/04 07:12:33;;;;;;;2.13;0.73;;;15.00;53.40;;;;;;4995763;28;20455;-70
2024/04/04 07:15:01;;;;;;;1.80;0.60;;;15.10;52.50;;;;;;4995647;28;20439;-71
2024/04/04 07:17:29;;;;;;;2.00;0.70;;;15.20;51.00;;;;;;4995825;28;20435;-71
2024/04/04 07:19:56;;;;;;;2.33;0.77;;;15.30;51.20;;;;;;4995648;28;21004;-71
2024/04/04 07:22:24;;;;;;;2.37;0.70;;;15.50;51.00;;;;;;4995746;28;20492;-71
2024/04/04 07:24:51;;;;;;;2.83;0.80;;;15.90;51.30;;;;;;4995898;28;20428;-70
2024/04/04 07:27:17;;;;;;;2.33;0.80;;;16.50;48.80;;;;;;4995681;28;20468;-71
2024/04/04 07:29:45;;;;;;;2.73;0.73;;;17.00;47.30;;;;;;4995373;28;20922;-71
2024/04/04 07:32:11;;;;;;;1.90;0.80;;;17.40;45.10;;;;;;4995386;28;20477;-71
2024/04/04 07:34:38;;;;;;;2.50;0.80;;;17.90;47.00;;;;;;4995360;28;20478;-71
2024/04/04 07:37:04;;;;;;;2.00;0.77;;;18.50;44.60;;;;;;4995628;28;20522;-72
2024/04/04 07:39:33;;;;;;;2.23;0.87;;;19.00;42.60;;;;;;4995074;28;20450;-72
2024/04/04 07:42:00;;;;;;;3.00;0.70;;;19.50;41.60;;;;;;4995236;28;20446;-72
2024/04/04 07:44:27;;;;;;;2.60;0.80;;;19.90;41.30;;;;;;4995502;28;20450;-72
2024/04/04 07:46:54;;;;;;;2.03;0.60;;;20.40;39.50;;;;;;4994963;28;20463;-71
2024/04/04 07:49:21;;;;;;;2.37;0.67;;;20.90;37.70;;;;;;4995308;28;20514;-72
2024/04/04 07:51:48;;;;;;;2.53;0.93;;;21.30;36.30;;;;;;4995013;28;20479;-71
2024/04/04 07:54:15;;;;;;;2.30;0.63;;;21.60;35.00;;;;;;4995129;28;20467;-72
2024/04/04 07:56:42;;;;;;;2.40;0.60;;;21.40;33.50;;;;;;4995163;28;20505;-71
2024/04/04 07:59:09;;;;;;;2.50;0.70;;;21.10;34.40;;;;;;4995298;28;20434;-71
2024/04/04 08:01:37;;;;;;;2.40;0.70;;;20.70;33.60;;;;;;4994830;28;20946;-71
2024/04/04 08:04:04;;;;;;;2.03;0.60;;;20.30;34.50;;;;;;4994940;28;20494;-71
2024/04/04 08:06:30;;;;;;;2.17;0.77;;;20.00;35.40;;;;;;4995046;28;20842;-71
2024/04/04 08:08:57;;;;;;;3.57;0.80;;;19.80;35.60;;;;;;4994665;28;20475;-71
2024/04/04 08:11:23;;;;;;;5.13;1.20;;;19.50;35.80;;;;;;4994990;28;20894;-71
2024/04/04 08:13:51;;;;;;;3.30;0.63;;;19.30;35.10;;;;;;4994881;28;20527;-71
2024/04/04 08:16:18;;;;;;;3.77;0.80;;;19.10;35.80;;;;;;4994875;28;20442;-71
2024/04/04 08:18:45;;;;;;;2.70;0.80;;;19.10;36.10;;;;;;4994929;28;20539;-71
2024/04/04 08:21:13;;;;;;;2.70;0.60;;;19.00;37.00;;;;;;4994490;28;20478;-73
2024/04/04 08:23:40;;;;;;;3.27;0.90;;;19.00;36.30;;;;;;4994144;28;20559;-72
2024/04/04 08:26:06;;;;;;;2.03;0.70;;;19.00;36.90;;;;;;4994842;28;20440;-71
2024/04/04 08:28:34;;;;;;;1.80;0.60;;;19.10;37.20;;;;;;4994641;28;20842;-72
2024/04/04 08:31:03;;;;;;;2.10;0.60;;;19.30;37.20;;;;;;4994563;28;20567;-71
2024/04/04 08:33:30;;;;;;;2.93;1.10;;;19.70;36.10;;;;;;4994519;28;20447;-71
2024/04/04 08:35:58;;;;;;;2.00;0.80;;;20.20;34.70;;;;;;4994592;28;20428;-72
2024/04/04 08:38:25;;;;;;;2.20;0.60;;;21.00;35.00;;;;;;4994452;28;20443;-72
2024/04/04 08:40:55;;;;;;;2.20;0.77;;;22.10;34.10;;;;;;4994710;28;20478;-72
2024/04/04 08:43:22;;;;;;;2.30;0.60;;;23.30;33.00;;;;;;4994464;28;20440;-72
2024/04/04 08:45:49;;;;;;;2.57;0.70;;;24.30;30.60;;;;;;4993997;28;20432;-72
2024/04/04 08:48:19;;;;;;;2.63;0.70;;;25.30;31.20;;;;;;4994675;28;20458;-72
2024/04/04 08:50:47;;;;;;;2.83;0.63;;;26.20;28.00;;;;;;4994059;28;20463;-72
2024/04/04 08:53:15;;;;;;;5.10;0.80;;;26.70;26.50;;;;;;4993444;28;20447;-72
2024/04/04 08:55:42;;;;;;;1.90;0.63;;;26.70;25.60;;;;;;4994176;28;20478;-72
2024/04/04 08:58:12;;;;;;;2.50;0.80;;;26.30;25.50;;;;;;4994220;28;20438;-72
2024/04/04 09:00:39;;;;;;;2.00;0.60;;;25.80;24.70;;;;;;4993866;28;20463;-72
2024/04/04 09:03:07;;;;;;;1.87;0.50;;;25.40;25.70;;;;;;4993858;28;20950;-71
2024/04/04 09:05:34;;;;;;;3.30;0.70;;;25.30;25.90;;;;;;4994050;28;20435;-71
2024/04/04 09:08:03;;;;;;;4.03;0.90;;;25.40;26.00;;;;;;4993537;28;20523;-72
2024/04/04 09:10:29;;;;;;;2.00;0.60;;;25.30;25.80;;;;;;4993724;28;20526;-71
2024/04/04 09:13:07;;;;;;;3.37;0.70;;;25.00;25.40;;;;;;4993711;28;20439;-72
2024/04/04 09:15:34;;;;;;;2.70;0.60;;;24.50;25.80;;;;;;4993927;28;20470;-71
2024/04/04 09:18:05;;;;;;;1.83;0.53;;;24.30;27.50;;;;;;4993108;28;20551;-72
2024/04/04 09:20:32;;;;;;;2.00;0.50;;;24.20;27.00;;;;;;4993913;28;20436;-72
2024/04/04 09:23:01;;;;;;;2.60;0.70;;;24.00;26.40;;;;;;4993435;28;20836;-71
2024/04/04 09:25:27;;;;;;;2.17;0.50;;;23.70;26.80;;;;;;4993142;28;20439;-71
2024/04/04 09:27:54;;;;;;;1.90;0.60;;;23.50;26.80;;;;;;4993917;28;20445;-71
2024/04/04 09:30:23;;;;;;;2.33;0.80;;;23.10;26.40;;;;;;4993832;28;20475;-71
2024/04/04 09:32:51;;;;;;;2.47;0.60;;;22.80;27.10;;;;;;4993019;28;20443;-71
2024/04/04 09:35:19;;;;;;;1.97;0.50;;;22.60;27.50;;;;;;4993577;28;20527;-71
2024/04/04 09:37:47;;;;;;;4.67;0.60;;;22.70;28.10;;;;;;4993486;28;20444;-72
2024/04/04 09:40:16;;;;;;;1.73;0.50;;;22.90;28.50;;;;;;4993218;28;20917;-71
2024/04/04 09:42:44;;;;;;;2.00;0.70;;;23.30;28.60;;;;;;4993419;28;20763;-71
2024/04/04 09:45:11;;;;;;;2.77;0.90;;;23.40;28.20;;;;;;4992874;28;20502;-71
2024/04/04 09:47:42;;;;;;;3.30;0.80;;;23.30;27.80;;;;;;4993325;28;20467;-71
2024/04/04 09:50:10;;;;;;;2.83;0.70;;;23.50;28.80;;;;;;4993722;28;20459;-71
2024/04/04 09:52:38;;;;;;;2.20;0.50;;;24.40;29.10;;;;;;4993378;28;20458;-72
2024/04/04 09:55:07;;;;;;;2.33;0.50;;;25.50;28.30;;;;;;4993290;28;20989;-72
2024/04/04 09:57:35;;;;;;;2.50;1.53;;;26.60;26.20;;;;;;4993668;28;20435;-72
2024/04/04 10:00:14;;;;;;;2.10;0.53;;;27.30;24.50;;;;;;4993561;28;20501;-72
2024/04/04 10:02:44;;;;;;;2.60;0.60;;;27.70;23.90;;;;;;4993151;28;20420;-72
2024/04/04 10:05:18;;;;;;;2.63;0.70;;;28.00;24.60;;;;;;4997618;28;20514;-72
2024/04/04 10:07:45;;;;;;;1.90;0.60;;;28.10;24.00;;;;;;4997356;28;20423;-72
2024/04/04 10:10:16;;;;;;;2.20;0.60;;;28.00;23.30;;;;;;4996771;28;20471;-72
2024/04/04 10:12:45;;;;;;;2.20;0.60;;;27.60;24.20;;;;;;4996584;28;20458;-75
2024/04/04 10:15:16;;;;;;;2.50;0.70;;;27.00;23.60;;;;;;4996888;28;20493;-72
2024/04/04 10:17:46;;;;;;;3.17;0.60;;;26.30;23.90;;;;;;4996985;28;20458;-72
2024/04/04 10:20:13;;;;;;;2.07;0.50;;;25.80;25.00;;;;;;4997017;28;20486;-71
2024/04/04 10:22:40;;;;;;;2.83;0.50;;;25.30;25.30;;;;;;4996377;28;20560;-71
2024/04/04 10:25:07;;;;;;;2.00;0.60;;;24.90;25.80;;;;;;4996477;28;20498;-71
2024/04/04 10:27:33;;;;;;;2.10;0.60;;;24.50;25.70;;;;;;4994894;28;20474;-72
2024/04/04 10:30:03;;;;;;;1.80;0.60;;;24.20;26.60;;;;;;4996605;28;20502;-72
2024/04/04 10:32:29;;;;;;;2.57;0.70;;;23.80;26.80;;;;;;4996320;28;20439;-71
2024/04/04 10:35:03;;;;;;;2.10;0.60;;;23.50;27.10;;;;;;4996468;28;20791;-71
2024/04/04 10:37:30;;;;;;;2.20;0.60;;;23.20;27.10;;;;;;4996177;28;20950;-72
2024/04/04 10:39:57;;;;;;;1.70;0.50;;;22.90;27.40;;;;;;4996556;28;20478;-72
2024/04/04 10:42:24;;;;;;;1.93;0.50;;;22.60;28.00;;;;;;4996193;28;20474;-71
2024/04/04 10:44:53;;;;;;;1.90;0.50;;;22.40;28.20;;;;;;4996393;28;20440;-71
2024/04/04 10:47:20;;;;;;;2.30;0.60;;;22.20;28.40;;;;;;4996605;28;20834;-72
2024/04/04 10:49:47;;;;;;;2.10;0.50;;;21.90;28.20;;;;;;4996441;28;20974;-71
2024/04/04 10:52:15;;;;;;;2.10;0.60;;;21.70;28.70;;;;;;4996087;28;20471;-71
2024/04/04 10:54:43;;;;;;;2.67;0.60;;;21.40;29.30;;;;;;4996088;28;20444;-72
2024/04/04 10:57:09;;;;;;;1.90;0.60;;;21.30;29.50;;;;;;4995930;28;20845;-72
2024/04/04 10:59:36;;;;;;;2.67;0.60;;;21.10;29.70;;;;;;4996367;28;20566;-72
2024/04/04 11:02:07;;;;;;;2.30;0.70;;;21.00;30.10;;;;;;4996207;28;20513;-71
2024/04/04 11:04:36;;;;;;;1.90;0.60;;;20.90;31.00;;;;;;5002189;28;20925;-72
2024/04/04 11:07:05;;;;;;;2.20;0.60;;;20.70;31.40;;;;;;5015664;28;20470;-71
2024/04/04 11:09:31;;;;;;;2.67;0.60;;;20.70;31.00;;;;;;5015228;28;20898;-71
2024/04/04 11:11:59;;;;;;;4.90;0.53;;;20.60;31.30;;;;;;5003088;28;20514;-72
2024/04/04 11:14:26;;;;;;;1.70;0.50;;;20.60;32.00;;;;;;4995123;28;20490;-72
2024/04/04 11:16:54;;;;;;;2.20;0.70;;;20.60;32.30;;;;;;5015058;28;20766;-71
2024/04/04 11:19:22;;;;;;;3.17;0.70;;;20.60;31.90;;;;;;5011345;28;20431;-71
2024/04/04 11:21:49;;;;;;;2.67;0.80;;;20.60;32.00;;;;;;5005104;28;20972;-71
2024/04/04 11:24:22;;;;;;;2.20;0.63;;;20.60;33.00;;;;;;4995251;28;20475;-72
2024/04/04 11:26:47;;;;;;;1.80;0.60;;;20.60;32.30;;;;;;4995402;28;20435;-72
2024/04/04 11:29:14;;;;;;;2.20;0.63;;;20.70;33.30;;;;;;4995636;28;20528;-71
2024/04/04 11:31:40;;;;;;;2.90;0.60;;;20.60;32.30;;;;;;4995274;28;20966;-72
2024/04/04 11:34:08;;;;;;;2.87;1.10;;;20.60;31.20;;;;;;4995975;28;20494;-72
2024/04/04 11:36:33;;;;;;;2.33;0.77;;;20.60;31.60;;;;;;5002701;28;20466;-72
2024/04/04 11:39:02;;;;;;;5.13;1.10;;;20.50;32.30;;;;;;5009361;28;21021;-72
2024/04/04 11:41:28;;;;;;;2.80;0.60;;;20.50;32.80;;;;;;4995129;28;20869;-72
2024/04/04 11:43:55;;;;;;;2.20;0.70;;;20.50;32.70;;;;;;5004940;28;20781;-72
2024/04/04 11:46:22;;;;;;;2.20;0.70;;;20.40;32.30;;;;;;5014591;28;20489;-71
2024/04/04 11:48:49;;;;;;;2.53;0.90;;;20.40;32.70;;;;;;5013561;28;20999;-71
2024/04/04 11:51:15;;;;;;;2.43;0.70;;;20.40;32.50;;;;;;5014237;28;20474;-72
2024/04/04 11:53:42;;;;;;;2.10;0.57;;;20.40;33.10;;;;;;5014419;28;20570;-72
2024/04/04 11:56:10;;;;;;;4.30;0.63;;;20.30;32.90;;;;;;5014823;28;20466;-71
2024/04/04 11:58:38;;;;;;;3.60;0.60;;;20.30;32.80;;;;;;5014851;28;20441;-71
2024/04/04 12:01:04;;;;;;;1.93;0.60;;;20.20;32.50;;;;;;5014811;28;20794;-72
2024/04/04 12:03:31;;;;;;;1.90;0.67;;;20.20;32.30;;;;;;5014360;28;20457;-72
2024/04/04 12:05:57;;;;;;;2.23;0.60;;;20.20;33.00;;;;;;5014592;28;20800;-71
2024/04/04 12:08:24;;;;;;;2.10;0.60;;;20.40;33.80;;;;;;5014496;28;20466;-72
2024/04/04 12:10:50;;;;;;;2.00;0.60;;;20.50;33.70;;;;;;5014415;28;20513;-72
2024/04/04 12:13:18;;;;;;;2.33;0.70;;;20.60;34.20;;;;;;5014078;28;20486;-71
2024/04/04 12:15:49;;;;;;;2.57;0.80;;;20.60;33.40;;;;;;5014418;28;20477;-72
2024/04/04 12:21:02;;;;;;;4.50;1.00;;;20.60;31.40;;;;;;5014412;28;20849;-71
2024/04/04 12:23:29;;;;;;;1.87;0.60;;;20.50;31.90;;;;;;5014085;28;20470;-72
2024/04/04 12:25:56;;;;;;;1.90;0.63;;;20.40;31.60;;;;;;5013869;28;20467;-71
2024/04/04 12:28:23;;;;;;;3.10;0.70;;;20.40;32.80;;;;;;5014110;28;20481;-72
2024/04/04 12:30:50;;;;;;;2.17;0.60;;;20.40;32.80;;;;;;5014245;28;20484;-72
2024/04/04 12:33:16;;;;;;;2.43;0.63;;;20.40;33.30;;;;;;5013808;28;20471;-71
2024/04/04 12:35:43;;;;;;;2.30;0.73;;;20.50;33.10;;;;;;5014010;28;20494;-72
2024/04/04 12:38:09;;;;;;;2.60;0.57;;;20.60;33.50;;;;;;5014035;28;20470;-71
2024/04/04 12:40:37;;;;;;;1.90;0.60;;;20.90;33.10;;;;;;5013961;28;20949;-72
2024/04/04 12:43:03;;;;;;;2.10;0.50;;;21.10;33.20;;;;;;5013995;28;20523;-71
2024/04/04 12:45:31;;;;;;;1.87;0.57;;;21.30;33.30;;;;;;5013944;28;20443;-72
2024/04/04 12:47:57;;;;;;;2.30;0.70;;;21.40;33.00;;;;;;5013795;28;20504;-72
2024/04/04 12:50:24;;;;;;;2.20;0.60;;;21.40;31.30;;;;;;5013646;28;20596;-71
2024/04/04 12:52:51;;;;;;;2.10;0.80;;;21.40;32.10;;;;;;5013794;28;20534;-72